createdAt,value
2017-03-18T00:00:40.356Z,1000.76
2017-03-18T00:01:50.647Z,1000.8
2017-03-18T00:03:00.935Z,1000.8
2017-03-18T00:04:11.236Z,1000.78
2017-03-18T00:05:21.857Z,1000.83
2017-03-18T00:06:31.841Z,1000.88
2017-03-18T00:07:41.831Z,1000.87
2017-03-18T00:08:52.143Z,1000.79
2017-03-18T00:10:02.465Z,1000.77
2017-03-18T00:11:12.716Z,1000.74
2017-03-18T00:12:23.014Z,1000.76
2017-03-18T00:13:33.326Z,1000.74
2017-03-18T00:14:43.645Z,1000.73
2017-03-18T00:15:53.678Z,1000.76
2017-03-18T00:17:04.226Z,1000.81
2017-03-18T00:18:14.526Z,1000.77
2017-03-18T00:19:24.529Z,1000.75
2017-03-18T00:20:34.826Z,1000.8
2017-03-18T00:21:44.500Z,1000.77
2017-03-18T00:22:55.052Z,1000.76
2017-03-18T00:24:05.415Z,1000.71
2017-03-18T00:25:15.408Z,1000.7
2017-03-18T00:26:25.707Z,1000.71
2017-03-18T00:27:36.008Z,1000.64
2017-03-18T00:28:46.606Z,1000.67
2017-03-18T00:29:56.593Z,1000.66
2017-03-18T00:31:06.884Z,1000.6
2017-03-18T00:32:17.181Z,1000.58
2017-03-18T00:33:27.490Z,1000.61
2017-03-18T00:34:38.046Z,1000.63
2017-03-18T00:35:48.052Z,1000.58
2017-03-18T00:36:58.343Z,1000.48
2017-03-18T00:38:08.350Z,1000.4
2017-03-18T00:39:18.657Z,1000.41
2017-03-18T00:40:29.271Z,1000.41
2017-03-18T00:41:39.252Z,1000.37
2017-03-18T00:42:48.930Z,1000.35
2017-03-18T00:43:59.236Z,1000.31
2017-03-18T00:45:09.537Z,1000.32
2017-03-18T00:46:20.083Z,1000.25
2017-03-18T00:47:30.397Z,1000.25
2017-03-18T00:48:40.705Z,1000.2
2017-03-18T00:49:50.691Z,1000.18
2017-03-18T00:51:01.204Z,1000.15
2017-03-18T00:52:11.756Z,1000.13
2017-03-18T00:53:22.055Z,1000.15
2017-03-18T00:54:32.372Z,1000.18
2017-03-18T00:55:42.670Z,1000.14
2017-03-18T00:56:52.973Z,1000.12
2017-03-18T00:58:03.250Z,1000.06
2017-03-18T00:59:13.236Z,1000.1
2017-03-18T01:00:23.555Z,1000.02
2017-03-18T01:01:33.875Z,1000.02
2017-03-18T01:02:44.192Z,999.98
2017-03-18T01:03:54.742Z,999.94
2017-03-18T01:05:05.050Z,999.96
2017-03-18T01:06:15.348Z,999.96
2017-03-18T01:07:25.670Z,999.92
2017-03-18T01:08:36.006Z,999.92
2017-03-18T01:09:46.570Z,999.89
2017-03-18T01:10:56.875Z,999.82
2017-03-18T01:12:07.180Z,999.82
2017-03-18T01:13:17.480Z,999.81
2017-03-18T01:14:27.786Z,999.81
2017-03-18T01:15:38.030Z,999.81
2017-03-18T01:16:48.323Z,999.74
2017-03-18T01:17:58.304Z,999.77
2017-03-18T01:19:08.616Z,999.73
2017-03-18T01:20:18.621Z,999.7
2017-03-18T01:21:29.178Z,999.69
2017-03-18T01:22:39.479Z,999.6
2017-03-18T01:23:49.783Z,999.58
2017-03-18T01:25:00.097Z,999.59
2017-03-18T01:26:10.393Z,999.61
2017-03-18T01:27:20.957Z,999.54
2017-03-18T01:28:31.255Z,999.55
2017-03-18T01:29:41.248Z,999.47
2017-03-18T01:30:51.540Z,999.46
2017-03-18T01:32:01.536Z,999.48
2017-03-18T01:33:12.080Z,999.48
2017-03-18T01:34:21.757Z,999.42
2017-03-18T01:35:32.060Z,999.41
2017-03-18T01:36:42.044Z,999.37
2017-03-18T01:37:52.361Z,999.36
2017-03-18T01:39:02.289Z,999.35
2017-03-18T01:40:12.282Z,999.34
2017-03-18T01:41:22.573Z,999.37
2017-03-18T01:42:32.886Z,999.35
2017-03-18T01:43:43.187Z,999.33
2017-03-18T01:44:53.790Z,999.29
2017-03-18T01:46:04.089Z,999.22
2017-03-18T01:47:14.375Z,999.22
2017-03-18T01:48:24.362Z,999.25
2017-03-18T01:49:34.340Z,999.2
2017-03-18T01:50:44.585Z,999.19
2017-03-18T01:51:54.893Z,999.16
2017-03-18T01:53:05.197Z,999.15
2017-03-18T01:54:15.204Z,999.14
2017-03-18T01:55:25.504Z,999.12
2017-03-18T01:56:36.063Z,999.07
2017-03-18T01:57:46.365Z,999.07
2017-03-18T01:58:56.662Z,999.03
2017-03-18T02:00:06.978Z,999.07
2017-03-18T02:01:17.271Z,999.07
2017-03-18T02:02:27.879Z,999.02
2017-03-18T02:03:38.186Z,998.99
2017-03-18T02:04:48.494Z,998.97
2017-03-18T02:05:58.944Z,999.04
2017-03-18T02:07:09.264Z,998.92
2017-03-18T02:08:19.811Z,998.9
2017-03-18T02:09:30.115Z,998.87
2017-03-18T02:10:40.414Z,998.85
2017-03-18T02:11:50.713Z,998.86
2017-03-18T02:13:00.719Z,998.78
2017-03-18T02:14:11.298Z,998.78
2017-03-18T02:15:21.622Z,998.8
2017-03-18T02:16:31.913Z,998.76
2017-03-18T02:17:42.214Z,998.77
2017-03-18T02:18:52.541Z,998.73
2017-03-18T02:20:03.090Z,998.75
2017-03-18T02:21:13.384Z,998.72
2017-03-18T02:22:23.676Z,998.66
2017-03-18T02:23:33.990Z,998.74
2017-03-18T02:24:43.990Z,998.68
2017-03-18T02:25:54.275Z,998.66
2017-03-18T02:27:04.583Z,998.65
2017-03-18T02:28:14.887Z,998.61
2017-03-18T02:29:24.880Z,998.55
2017-03-18T02:30:35.184Z,998.57
2017-03-18T02:31:45.426Z,998.49
2017-03-18T02:32:55.741Z,998.5
2017-03-18T02:34:05.871Z,998.5
2017-03-18T02:35:16.188Z,998.46
2017-03-18T02:36:26.940Z,998.5
2017-03-18T02:37:37.524Z,998.46
2017-03-18T02:38:47.213Z,998.46
2017-03-18T02:39:57.513Z,998.39
2017-03-18T02:41:07.817Z,998.35
2017-03-18T02:42:18.120Z,998.28
2017-03-18T02:43:28.666Z,998.33
2017-03-18T02:44:38.663Z,998.18
2017-03-18T02:45:48.345Z,998.22
2017-03-18T02:46:58.329Z,998.17
2017-03-18T02:48:08.647Z,998.14
2017-03-18T02:49:19.245Z,998.12
2017-03-18T02:50:29.548Z,998.03
2017-03-18T02:51:39.849Z,998.05
2017-03-18T02:52:50.141Z,997.91
2017-03-18T02:54:00.127Z,997.89
2017-03-18T02:55:10.732Z,997.87
2017-03-18T02:56:21.032Z,997.77
2017-03-18T02:57:31.007Z,997.77
2017-03-18T02:58:40.998Z,997.81
2017-03-18T02:59:50.985Z,997.75
2017-03-18T03:01:01.536Z,997.75
2017-03-18T03:02:11.831Z,997.7
2017-03-18T03:03:22.170Z,997.71
2017-03-18T03:04:32.466Z,997.64
2017-03-18T03:05:42.445Z,997.62
2017-03-18T03:06:52.374Z,997.59
2017-03-18T03:08:02.672Z,997.57
2017-03-18T03:09:12.978Z,997.54
2017-03-18T03:10:23.273Z,997.54
2017-03-18T03:11:33.579Z,997.51
2017-03-18T03:12:43.513Z,997.44
2017-03-18T03:13:53.821Z,997.4
2017-03-18T03:15:03.818Z,997.36
2017-03-18T03:16:14.109Z,997.34
2017-03-18T03:17:24.216Z,997.31
2017-03-18T03:18:34.454Z,997.29
2017-03-18T03:19:44.775Z,997.28
2017-03-18T03:20:55.081Z,997.23
2017-03-18T03:22:05.382Z,997.17
2017-03-18T03:23:15.361Z,997.16
2017-03-18T03:24:25.923Z,997.13
2017-03-18T03:25:35.916Z,997.13
2017-03-18T03:26:46.210Z,997.13
2017-03-18T03:27:56.529Z,997.09
2017-03-18T03:29:06.834Z,997.09
2017-03-18T03:30:17.398Z,997.04
2017-03-18T03:31:27.702Z,997.03
2017-03-18T03:32:38.002Z,997.01
2017-03-18T03:33:48.304Z,996.98
2017-03-18T03:34:58.611Z,996.96
2017-03-18T03:36:08.889Z,996.97
2017-03-18T03:37:19.187Z,996.95
2017-03-18T03:38:29.169Z,996.91
2017-03-18T03:39:39.156Z,996.91
2017-03-18T03:40:49.136Z,996.87
2017-03-18T03:41:59.726Z,996.9
2017-03-18T03:43:10.019Z,996.82
2017-03-18T03:44:20.317Z,996.75
2017-03-18T03:45:30.623Z,996.8
2017-03-18T03:46:40.915Z,996.76
2017-03-18T03:47:51.470Z,996.72
2017-03-18T03:49:01.766Z,996.66
2017-03-18T03:50:11.760Z,996.68
2017-03-18T03:51:21.744Z,996.64
2017-03-18T03:52:32.036Z,996.56
2017-03-18T03:53:42.586Z,996.56
2017-03-18T03:54:52.898Z,996.57
2017-03-18T03:56:03.195Z,996.56
2017-03-18T03:57:13.485Z,996.56
2017-03-18T03:58:23.479Z,996.53
2017-03-18T03:59:34.071Z,996.57
2017-03-18T04:00:43.731Z,996.5
2017-03-18T04:01:54.032Z,996.51
2017-03-18T04:03:04.336Z,996.44
2017-03-18T04:04:14.332Z,996.44
2017-03-18T04:05:24.938Z,996.39
2017-03-18T04:06:34.602Z,996.36
2017-03-18T04:07:44.892Z,996.33
2017-03-18T04:08:54.899Z,996.3
2017-03-18T04:10:05.200Z,996.27
2017-03-18T04:11:15.482Z,996.22
2017-03-18T04:12:25.459Z,996.2
2017-03-18T04:13:35.754Z,996.23
2017-03-18T04:14:45.749Z,996.2
2017-03-18T04:15:56.058Z,996.16
2017-03-18T04:17:06.289Z,996.09
2017-03-18T04:18:16.578Z,996.06
2017-03-18T04:19:26.896Z,996.05
2017-03-18T04:20:37.216Z,995.99
2017-03-18T04:21:47.510Z,995.99
2017-03-18T04:22:57.751Z,995.98
2017-03-18T04:24:08.055Z,995.98
2017-03-18T04:25:18.359Z,995.91
2017-03-18T04:26:28.349Z,995.86
2017-03-18T04:27:38.643Z,995.84
2017-03-18T04:28:49.245Z,995.8
2017-03-18T04:29:59.546Z,995.71
2017-03-18T04:31:09.844Z,995.62
2017-03-18T04:32:20.144Z,995.61
2017-03-18T04:33:30.440Z,995.55
2017-03-18T04:34:41.043Z,995.51
2017-03-18T04:35:51.350Z,995.47
2017-03-18T04:37:01.645Z,995.39
2017-03-18T04:38:11.670Z,995.39
2017-03-18T04:39:21.959Z,995.42
2017-03-18T04:40:32.512Z,995.47
2017-03-18T04:41:42.499Z,995.5
2017-03-18T04:42:52.801Z,995.46
2017-03-18T04:44:02.787Z,995.37
2017-03-18T04:45:13.085Z,995.4
2017-03-18T04:46:23.365Z,995.42
2017-03-18T04:47:33.341Z,995.34
2017-03-18T04:48:43.645Z,995.24
2017-03-18T04:49:53.645Z,995.26
2017-03-18T04:51:03.957Z,995.21
2017-03-18T04:52:14.502Z,995.13
2017-03-18T04:53:24.794Z,995.06
2017-03-18T04:54:35.104Z,995.03
2017-03-18T04:55:45.398Z,995.01
2017-03-18T04:56:55.695Z,995.04
2017-03-18T04:58:06.233Z,995.07
2017-03-18T04:59:16.535Z,995.1
2017-03-18T05:00:26.842Z,995.18
2017-03-18T05:01:37.145Z,995.2
2017-03-18T05:02:47.440Z,995.08
2017-03-18T05:03:57.994Z,995.03
2017-03-18T05:05:08.291Z,995.04
2017-03-18T05:06:18.592Z,995.05
2017-03-18T05:07:28.889Z,995.05
2017-03-18T05:08:39.194Z,994.99
2017-03-18T05:09:49.761Z,994.97
2017-03-18T05:11:00.095Z,994.86
2017-03-18T05:12:10.384Z,994.85
2017-03-18T05:13:20.679Z,994.8
2017-03-18T05:14:30.998Z,994.71
2017-03-18T05:15:41.590Z,994.65
2017-03-18T05:16:51.578Z,994.6
2017-03-18T05:18:01.891Z,994.56
2017-03-18T05:19:12.201Z,994.43
2017-03-18T05:20:22.194Z,994.41
2017-03-18T05:21:32.473Z,994.35
2017-03-18T05:22:42.447Z,994.35
2017-03-18T05:23:52.758Z,994.27
2017-03-18T05:25:03.076Z,994.26
2017-03-18T05:26:13.063Z,994.27
2017-03-18T05:27:23.618Z,994.31
2017-03-18T05:28:33.920Z,994.27
2017-03-18T05:29:44.223Z,994.24
2017-03-18T05:30:54.516Z,994.27
2017-03-18T05:32:04.822Z,994.22
2017-03-18T05:33:15.410Z,994.23
2017-03-18T05:34:25.703Z,994.25
2017-03-18T05:35:35.690Z,994.15
2017-03-18T05:36:45.687Z,994.12
2017-03-18T05:37:55.991Z,994.12
2017-03-18T05:39:06.594Z,994.1
2017-03-18T05:40:16.590Z,994.05
2017-03-18T05:41:26.576Z,994.01
2017-03-18T05:42:36.892Z,994.01
2017-03-18T05:43:47.187Z,993.96
2017-03-18T05:44:57.424Z,993.9
2017-03-18T05:46:07.412Z,993.84
2017-03-18T05:47:17.385Z,993.79
2017-03-18T05:48:27.683Z,993.81
2017-03-18T05:49:37.676Z,993.77
2017-03-18T05:50:48.229Z,993.75
2017-03-18T05:51:58.512Z,993.64
2017-03-18T05:53:08.489Z,993.68
2017-03-18T05:54:18.799Z,993.65
2017-03-18T05:55:29.101Z,993.57
2017-03-18T05:56:39.658Z,993.52
2017-03-18T05:57:50.000Z,993.47
2017-03-18T05:59:00.307Z,993.43
2017-03-18T06:00:10.621Z,993.38
2017-03-18T06:01:20.921Z,993.32
2017-03-18T06:02:31.475Z,993.31
2017-03-18T06:03:41.481Z,993.31
2017-03-18T06:04:51.789Z,993.24
2017-03-18T06:06:02.100Z,993.21
2017-03-18T06:07:12.390Z,993.26
2017-03-18T06:08:22.065Z,993.23
2017-03-18T06:09:32.103Z,993.17
2017-03-18T06:10:42.096Z,993.2
2017-03-18T06:11:51.757Z,993.14
2017-03-18T06:13:01.469Z,993.09
2017-03-18T06:14:12.218Z,993.17
2017-03-18T06:15:22.537Z,993.12
2017-03-18T06:16:32.834Z,993.08
2017-03-18T06:17:42.813Z,993.14
2017-03-18T06:18:53.117Z,993.16
2017-03-18T06:20:03.671Z,993.14
2017-03-18T06:21:13.977Z,993.1
2017-03-18T06:22:24.007Z,993.09
2017-03-18T06:23:34.317Z,993.06
2017-03-18T06:24:44.624Z,992.99
2017-03-18T06:25:55.167Z,992.96
2017-03-18T06:27:05.152Z,992.86
2017-03-18T06:28:15.456Z,992.83
2017-03-18T06:29:25.763Z,992.76
2017-03-18T06:30:36.090Z,992.71
2017-03-18T06:31:46.320Z,992.7
2017-03-18T06:32:56.300Z,992.66
2017-03-18T06:34:06.602Z,992.55
2017-03-18T06:35:16.934Z,992.52
2017-03-18T06:36:26.928Z,992.52
2017-03-18T06:37:37.477Z,992.55
2017-03-18T06:38:47.783Z,992.58
2017-03-18T06:39:57.767Z,992.59
2017-03-18T06:41:07.794Z,992.51
2017-03-18T06:42:18.084Z,992.51
2017-03-18T06:43:28.634Z,992.37
2017-03-18T06:44:38.630Z,992.29
2017-03-18T06:45:48.982Z,992.29
2017-03-18T06:46:59.271Z,992.3
2017-03-18T06:48:09.579Z,992.26
2017-03-18T06:49:20.189Z,992.17
2017-03-18T06:50:30.492Z,992.11
2017-03-18T06:51:40.793Z,992.04
2017-03-18T06:52:51.107Z,992.08
2017-03-18T06:54:01.092Z,992.11
2017-03-18T06:55:11.651Z,992.13
2017-03-18T06:56:21.942Z,992.01
2017-03-18T06:57:32.282Z,991.96
2017-03-18T06:58:42.599Z,991.92
2017-03-18T06:59:52.908Z,991.83
2017-03-18T07:01:03.530Z,991.8
2017-03-18T07:02:13.836Z,991.79
2017-03-18T07:03:24.141Z,991.73
2017-03-18T07:04:34.429Z,991.73
2017-03-18T07:05:44.758Z,991.64
2017-03-18T07:06:55.373Z,991.72
2017-03-18T07:08:05.670Z,991.66
2017-03-18T07:09:15.980Z,991.66
2017-03-18T07:10:25.963Z,991.69
2017-03-18T07:11:36.260Z,991.67
2017-03-18T07:12:46.540Z,991.69
2017-03-18T07:13:56.855Z,991.54
2017-03-18T07:15:07.167Z,991.53
2017-03-18T07:16:17.476Z,991.4
2017-03-18T07:17:27.781Z,991.37
2017-03-18T07:18:38.015Z,991.35
2017-03-18T07:19:48.345Z,991.46
2017-03-18T07:20:58.656Z,991.43
2017-03-18T07:22:08.960Z,991.45
2017-03-18T07:23:18.948Z,991.41
2017-03-18T07:24:29.200Z,991.46
2017-03-18T07:25:39.200Z,991.34
2017-03-18T07:26:49.498Z,991.37
2017-03-18T07:27:59.802Z,991.31
2017-03-18T07:29:10.122Z,991.27
2017-03-18T07:30:20.719Z,991.33
2017-03-18T07:31:31.055Z,991.26
2017-03-18T07:32:41.360Z,991.17
2017-03-18T07:33:51.664Z,991.19
2017-03-18T07:35:01.977Z,991.17
2017-03-18T07:36:12.762Z,991.11
2017-03-18T07:37:23.074Z,991.09
2017-03-18T07:38:33.361Z,991.04
2017-03-18T07:39:43.351Z,991.06
2017-03-18T07:40:53.657Z,990.95
2017-03-18T07:42:04.205Z,990.89
2017-03-18T07:43:14.186Z,990.86
2017-03-18T07:44:24.523Z,990.88
2017-03-18T07:45:34.829Z,990.91
2017-03-18T07:46:44.800Z,990.86
2017-03-18T07:47:55.347Z,990.85
2017-03-18T07:49:05.346Z,990.88
2017-03-18T07:50:15.712Z,990.85
2017-03-18T07:51:26.039Z,990.82
2017-03-18T07:52:35.774Z,990.83
2017-03-18T07:53:46.059Z,990.82
2017-03-18T07:54:56.068Z,990.73
2017-03-18T07:56:06.381Z,990.6
2017-03-18T07:57:16.702Z,990.63
2017-03-18T07:58:27.015Z,990.56
2017-03-18T07:59:37.269Z,990.59
2017-03-18T08:00:47.568Z,990.58
2017-03-18T08:01:57.899Z,990.49
2017-03-18T08:03:08.208Z,990.46
2017-03-18T08:04:18.528Z,990.39
2017-03-18T08:05:29.094Z,990.47
2017-03-18T08:06:39.386Z,990.48
2017-03-18T08:07:49.693Z,990.44
2017-03-18T08:09:00.003Z,990.41
2017-03-18T08:10:10.013Z,990.47
2017-03-18T08:11:20.667Z,990.38
2017-03-18T08:12:31.017Z,990.29
2017-03-18T08:13:41.322Z,990.3
2017-03-18T08:14:51.623Z,990.5
2017-03-18T08:16:01.922Z,990.43
2017-03-18T08:17:12.467Z,990.35
2017-03-18T08:18:22.758Z,990.4
2017-03-18T08:19:33.062Z,990.39
2017-03-18T08:20:43.380Z,990.24
2017-03-18T08:21:53.692Z,990.38
2017-03-18T08:23:04.583Z,990.24
2017-03-18T08:24:14.896Z,990.23
2017-03-18T08:25:25.203Z,990.2
2017-03-18T08:26:35.179Z,990.27
2017-03-18T08:27:45.495Z,990.3
2017-03-18T08:28:55.791Z,990.15
2017-03-18T08:30:06.108Z,990.11
2017-03-18T08:31:16.416Z,990.26
2017-03-18T08:32:26.720Z,990.33
2017-03-18T08:33:37.025Z,990.04
2017-03-18T08:34:47.593Z,990.16
2017-03-18T08:35:57.915Z,990.17
2017-03-18T08:37:08.221Z,990.19
2017-03-18T08:38:18.524Z,990.03
2017-03-18T08:39:29.126Z,990.09
2017-03-18T08:40:39.766Z,990.05
2017-03-18T08:41:50.070Z,990.01
2017-03-18T08:43:00.436Z,990.04
2017-03-18T08:44:10.733Z,990.01
2017-03-18T08:45:20.738Z,990.04
2017-03-18T08:46:30.711Z,990.11
2017-03-18T08:47:40.708Z,989.92
2017-03-18T08:48:51.030Z,989.99
2017-03-18T08:50:01.329Z,989.91
2017-03-18T08:51:11.631Z,989.81
2017-03-18T08:52:22.237Z,989.86
2017-03-18T08:53:32.533Z,989.87
2017-03-18T08:54:42.837Z,990
2017-03-18T08:55:53.138Z,989.82
2017-03-18T08:57:03.429Z,989.71
2017-03-18T08:58:13.993Z,989.86
2017-03-18T08:59:24.300Z,989.89
2017-03-18T09:00:34.611Z,989.9
2017-03-18T09:01:44.911Z,989.91
2017-03-18T09:02:55.213Z,989.87
2017-03-18T09:04:05.816Z,989.92
2017-03-18T09:05:16.143Z,989.83
2017-03-18T09:06:26.454Z,989.88
2017-03-18T09:07:36.759Z,989.85
2017-03-18T09:08:47.081Z,989.79
2017-03-18T09:09:57.701Z,989.74
2017-03-18T09:11:08.018Z,989.81
2017-03-18T09:12:18.025Z,989.8
2017-03-18T09:13:28.331Z,989.71
2017-03-18T09:14:38.638Z,989.67
2017-03-18T09:15:49.235Z,989.74
2017-03-18T09:16:59.536Z,989.7
2017-03-18T09:18:09.834Z,989.68
2017-03-18T09:19:20.164Z,989.8
2017-03-18T09:20:30.474Z,989.92
2017-03-18T09:21:41.049Z,989.88
2017-03-18T09:22:51.356Z,989.83
2017-03-18T09:24:01.677Z,989.79
2017-03-18T09:25:11.988Z,989.69
2017-03-18T09:26:22.299Z,989.77
2017-03-18T09:27:32.850Z,989.67
2017-03-18T09:28:43.161Z,989.57
2017-03-18T09:29:53.489Z,989.52
2017-03-18T09:31:03.494Z,989.55
2017-03-18T09:32:13.801Z,989.59
2017-03-18T09:33:24.038Z,989.6
2017-03-18T09:34:33.721Z,989.58
2017-03-18T09:35:44.021Z,989.63
2017-03-18T09:36:54.332Z,989.59
2017-03-18T09:38:04.648Z,989.58
2017-03-18T09:39:15.228Z,989.51
2017-03-18T09:40:25.549Z,989.57
2017-03-18T09:41:35.862Z,989.58
2017-03-18T09:42:46.160Z,989.62
2017-03-18T09:43:55.853Z,989.6
2017-03-18T09:45:06.477Z,989.58
2017-03-18T09:46:16.489Z,989.52
2017-03-18T09:47:26.801Z,989.53
2017-03-18T09:48:37.114Z,989.51
2017-03-18T09:49:47.423Z,989.48
2017-03-18T09:50:57.972Z,989.42
2017-03-18T09:52:08.303Z,989.46
2017-03-18T09:53:18.611Z,989.46
2017-03-18T09:54:28.618Z,989.6
2017-03-18T09:55:38.629Z,989.53
2017-03-18T09:56:49.194Z,989.54
2017-03-18T09:57:59.513Z,989.52
2017-03-18T09:59:09.827Z,989.43
2017-03-18T10:00:20.153Z,989.46
2017-03-18T10:01:30.464Z,989.43
2017-03-18T10:02:41.129Z,989.3
2017-03-18T10:03:51.439Z,989.41
2017-03-18T10:05:01.473Z,989.4
2017-03-18T10:06:11.782Z,989.41
2017-03-18T10:07:22.089Z,989.38
2017-03-18T10:08:32.656Z,989.39
2017-03-18T10:09:42.991Z,989.37
2017-03-18T10:10:53.295Z,989.33
2017-03-18T10:12:03.610Z,989.35
2017-03-18T10:13:13.952Z,989.37
2017-03-18T10:14:24.205Z,989.36
2017-03-18T10:15:34.524Z,989.35
2017-03-18T10:16:44.524Z,989.31
2017-03-18T10:17:54.821Z,989.32
2017-03-18T10:19:04.831Z,989.36
2017-03-18T10:20:15.484Z,989.3
2017-03-18T10:21:25.775Z,989.34
2017-03-18T10:22:36.077Z,989.3
2017-03-18T10:23:46.400Z,989.31
2017-03-18T10:24:56.723Z,989.23
2017-03-18T10:26:07.288Z,989.2
2017-03-18T10:27:17.599Z,989.26
2017-03-18T10:28:27.904Z,989.29
2017-03-18T10:29:38.233Z,989.27
2017-03-18T10:30:48.559Z,989.24
2017-03-18T10:31:59.165Z,989.29
2017-03-18T10:33:09.162Z,989.18
2017-03-18T10:34:18.544Z,989.19
2017-03-18T10:35:28.237Z,989.25
2017-03-18T10:36:38.543Z,989.25
2017-03-18T10:37:49.108Z,989.27
2017-03-18T10:38:59.439Z,989.16
2017-03-18T10:40:09.757Z,989.22
2017-03-18T10:41:20.067Z,989.17
2017-03-18T10:42:30.375Z,989.21
2017-03-18T10:43:40.950Z,989.12
2017-03-18T10:44:51.257Z,989.06
2017-03-18T10:46:01.238Z,989.01
2017-03-18T10:47:11.531Z,988.86
2017-03-18T10:48:21.852Z,988.93
2017-03-18T10:49:32.087Z,988.9
2017-03-18T10:50:42.398Z,988.98
2017-03-18T10:51:52.397Z,988.92
2017-03-18T10:53:02.720Z,989
2017-03-18T10:54:12.429Z,988.99
2017-03-18T10:55:23.046Z,989
2017-03-18T10:56:33.366Z,989.03
2017-03-18T10:57:43.677Z,988.92
2017-03-18T10:58:53.992Z,988.91
2017-03-18T11:00:04.316Z,988.98
2017-03-18T11:01:14.569Z,988.99
2017-03-18T11:02:24.878Z,988.99
2017-03-18T11:03:34.863Z,989.03
2017-03-18T11:04:45.184Z,989.04
2017-03-18T11:05:55.499Z,988.88
2017-03-18T11:07:06.062Z,989.01
2017-03-18T11:08:16.434Z,989.04
2017-03-18T11:09:26.752Z,989.22
2017-03-18T11:10:36.733Z,989.16
2017-03-18T11:11:46.713Z,989.26
2017-03-18T11:12:56.949Z,989.27
2017-03-18T11:14:07.270Z,989.28
2017-03-18T11:15:17.585Z,989.25
2017-03-18T11:16:27.916Z,989.26
2017-03-18T11:17:37.918Z,989.26
2017-03-18T11:18:48.175Z,989.35
2017-03-18T11:19:58.537Z,989.31
2017-03-18T11:21:08.844Z,989.21
2017-03-18T11:22:19.149Z,989.24
2017-03-18T11:23:29.499Z,989.17
2017-03-18T11:24:40.063Z,989.2
2017-03-18T11:25:50.373Z,989.29
2017-03-18T11:27:00.683Z,989.21
2017-03-18T11:28:11.011Z,989.25
2017-03-18T11:29:21.350Z,989.26
2017-03-18T11:30:31.929Z,989.27
2017-03-18T11:31:42.243Z,989.12
2017-03-18T11:32:52.552Z,989.33
2017-03-18T11:34:02.861Z,989.17
2017-03-18T11:35:13.186Z,989.28
2017-03-18T11:36:23.730Z,989.28
2017-03-18T11:37:34.048Z,989.35
2017-03-18T11:38:44.414Z,989.43
2017-03-18T11:39:54.723Z,989.39
2017-03-18T11:41:05.042Z,989.4
2017-03-18T11:42:15.630Z,989.49
2017-03-18T11:43:25.939Z,989.48
2017-03-18T11:44:36.229Z,989.66
2017-03-18T11:45:46.529Z,989.46
2017-03-18T11:46:56.842Z,989.74
2017-03-18T11:48:07.404Z,989.73
2017-03-18T11:49:17.421Z,989.93
2017-03-18T11:50:27.423Z,989.93
2017-03-18T11:51:37.467Z,990.18
2017-03-18T11:52:47.769Z,990.16
2017-03-18T11:53:58.333Z,990.17
2017-03-18T11:55:08.655Z,990.19
2017-03-18T11:56:18.986Z,990.2
2017-03-18T11:57:29.305Z,990.3
2017-03-18T11:58:39.632Z,990.31
2017-03-18T11:59:50.185Z,990.38
2017-03-18T12:01:00.187Z,990.23
2017-03-18T12:02:10.512Z,990.33
2017-03-18T12:03:20.840Z,990.33
2017-03-18T12:04:30.868Z,990.33
2017-03-18T12:05:41.442Z,990.4
2017-03-18T12:06:51.753Z,990.44
2017-03-18T12:08:02.083Z,990.33
2017-03-18T12:09:12.413Z,990.46
2017-03-18T12:10:22.745Z,990.35
2017-03-18T12:11:33.439Z,990.44
2017-03-18T12:12:43.758Z,990.63
2017-03-18T12:13:54.087Z,990.68
2017-03-18T12:15:04.397Z,990.68
2017-03-18T12:16:14.701Z,990.89
2017-03-18T12:17:25.313Z,990.86
2017-03-18T12:18:35.636Z,990.9
2017-03-18T12:19:45.952Z,990.95
2017-03-18T12:20:56.266Z,990.86
2017-03-18T12:22:06.582Z,991.02
2017-03-18T12:23:17.207Z,991.05
2017-03-18T12:24:27.223Z,991.3
2017-03-18T12:25:37.526Z,991
2017-03-18T12:26:47.891Z,991.22
2017-03-18T12:27:58.197Z,991.19
2017-03-18T12:29:08.774Z,991.17
2017-03-18T12:30:19.096Z,991.19
2017-03-18T12:31:29.435Z,991.35
2017-03-18T12:32:39.751Z,991.29
2017-03-18T12:33:50.070Z,991.42
2017-03-18T12:35:00.674Z,991.37
2017-03-18T12:36:10.996Z,991.48
2017-03-18T12:37:21.318Z,991.45
2017-03-18T12:38:31.643Z,991.51
2017-03-18T12:39:41.956Z,991.45
2017-03-18T12:40:52.205Z,991.65
2017-03-18T12:42:02.516Z,991.63
2017-03-18T12:43:12.826Z,991.76
2017-03-18T12:44:23.152Z,991.93
2017-03-18T12:45:33.485Z,991.89
2017-03-18T12:46:44.089Z,992.05
2017-03-18T12:47:54.445Z,991.93
2017-03-18T12:49:04.763Z,992.12
2017-03-18T12:50:15.103Z,991.91
2017-03-18T12:51:25.084Z,992.01
2017-03-18T12:52:35.648Z,992
2017-03-18T12:53:45.660Z,992.06
2017-03-18T12:54:55.981Z,992.13
2017-03-18T12:56:06.303Z,992.05
2017-03-18T12:57:16.601Z,992.21
2017-03-18T12:58:27.536Z,992.16
2017-03-18T12:59:37.850Z,992.23
2017-03-18T13:00:48.160Z,992.39
2017-03-18T13:01:58.470Z,992.36
2017-03-18T13:03:08.770Z,992.51
2017-03-18T13:04:19.398Z,992.48
2017-03-18T13:05:29.715Z,992.52
2017-03-18T13:06:39.388Z,992.76
2017-03-18T13:07:49.744Z,992.44
2017-03-18T13:08:59.754Z,992.67
2017-03-18T13:10:10.382Z,992.55
2017-03-18T13:11:20.388Z,992.72
2017-03-18T13:12:30.700Z,992.7
2017-03-18T13:13:41.030Z,992.7
2017-03-18T13:14:51.379Z,992.73
2017-03-18T13:16:01.944Z,992.95
2017-03-18T13:17:12.239Z,992.82
2017-03-18T13:18:21.927Z,992.82
2017-03-18T13:19:32.246Z,992.75
2017-03-18T13:20:42.581Z,992.81
2017-03-18T13:21:53.145Z,992.98
2017-03-18T13:23:03.130Z,992.99
2017-03-18T13:24:13.449Z,993.03
2017-03-18T13:25:23.769Z,992.91
2017-03-18T13:26:34.072Z,993.19
2017-03-18T13:27:44.390Z,993.11
2017-03-18T13:28:54.703Z,993.23
2017-03-18T13:30:04.750Z,993.31
2017-03-18T13:31:15.062Z,993.34
2017-03-18T13:32:25.397Z,993.26
2017-03-18T13:33:35.704Z,993.3
2017-03-18T13:34:46.012Z,993.43
2017-03-18T13:35:56.332Z,993.19
2017-03-18T13:37:06.646Z,993.22
2017-03-18T13:38:16.946Z,993.39
2017-03-18T13:39:27.202Z,993.44
2017-03-18T13:40:37.509Z,993.29
2017-03-18T13:41:47.503Z,993.43
2017-03-18T13:42:57.826Z,993.52
2017-03-18T13:44:07.514Z,993.43
2017-03-18T13:45:17.790Z,993.49
2017-03-18T13:46:28.115Z,993.37
2017-03-18T13:47:38.422Z,993.59
2017-03-18T13:48:48.760Z,993.65
2017-03-18T13:49:59.090Z,993.56
2017-03-18T13:51:09.656Z,993.57
2017-03-18T13:52:19.654Z,993.82
2017-03-18T13:53:29.990Z,993.8
2017-03-18T13:54:40.307Z,993.84
2017-03-18T13:55:50.617Z,993.86
2017-03-18T13:57:01.221Z,993.77
2017-03-18T13:58:11.532Z,994
2017-03-18T13:59:21.889Z,994.02
2017-03-18T14:00:32.249Z,994.09
2017-03-18T14:01:42.552Z,994.13
2017-03-18T14:02:53.126Z,994.08
2017-03-18T14:04:03.459Z,994.09
2017-03-18T14:05:13.798Z,993.96
2017-03-18T14:06:24.104Z,993.92
2017-03-18T14:07:34.410Z,994.08
2017-03-18T14:08:44.979Z,994.08
2017-03-18T14:09:55.405Z,994.24
2017-03-18T14:11:05.713Z,994.27
2017-03-18T14:12:16.030Z,994.26
2017-03-18T14:13:26.345Z,994.25
2017-03-18T14:14:37.001Z,994.27
2017-03-18T14:15:47.322Z,994.19
2017-03-18T14:16:57.625Z,994.25
2017-03-18T14:18:07.955Z,994.41
2017-03-18T14:19:18.287Z,994.52
2017-03-18T14:20:28.537Z,994.51
2017-03-18T14:21:38.858Z,994.58
2017-03-18T14:22:49.180Z,994.58
2017-03-18T14:23:59.200Z,994.71
2017-03-18T14:25:09.515Z,994.74
2017-03-18T14:26:20.142Z,994.72
2017-03-18T14:27:30.457Z,994.7
2017-03-18T14:28:40.761Z,994.74
2017-03-18T14:29:51.082Z,994.87
2017-03-18T14:31:01.400Z,994.82
2017-03-18T14:32:11.963Z,994.88
2017-03-18T14:33:21.958Z,994.89
2017-03-18T14:34:32.275Z,994.92
2017-03-18T14:35:42.578Z,995
2017-03-18T14:36:52.895Z,994.9
2017-03-18T14:38:03.455Z,994.97